Kenosha Regional Airport
KENW : now visible

Airfield :











YOU CAN JOIN US ON...

 
LOGIN :

Register | Disclaimer

   EN    FR    IT 

 









Legend :    VFR   Marginal VFR   IFR   Intensive IFR   Very Intensive IFR
Visi :
Ceiling :
>= 8 km
>= 3000ft
5 to 8 km
1000 to 3000 ft
1500m to 5 km
500 to 1000 ft
800 to 1500m
200 to 500 ft
< 800m
< 200 ft
Symbols :   Thunderstorms  Fog  Heavy snow  Heavy precipitations  Wind > 20 kt






- Airport Elevation : 742 ft


KENW - Kenosha Regional

CURRENT METAR :
  • 291853Z 34008KT 10SM FEW016 OVC025 M04/M11 A3021 RMK AO2 SLP243 T10441106

EXPIRED METARs :
  • 291753Z 36011KT 10SM BKN015 OVC025 M05/M11 A3023 RMK AO2 SLP249 T10501106 11044 21072 50004
  • 291653Z 33010KT 10SM OVC015 M06/M12 A3025 RMK AO2 SLP254 T10611117
  • 291553Z 35009KT 10SM OVC017 M07/M12 A3023 RMK AO2 SLP249 T10671117

TAF KENW
Valid from the 29 at 18:00 until the 30 at 18:00 UTC


291732Z 2918/3018 34010KT P6SM BKN015 OVC021
FM292000 34010KT P6SM OVC025
FM292200 34008KT P6SM OVC035
FM300800 32010KT P6SM OVC035
FM301600 31011G18KT P6SM BKN035
KZAU FIR / North America



MET'MAP, your aeronautical weather chart ! - Copyright ORBIFLY December 2007 - Disclaimer

ORBIFLY MET'MAP TEAM :

Programming & Development : Alexandra Zaïnal
Original concept : Baudouin d'Aumeries
Technical & hardware support : Manuel Goepfert
Assistance : Marc-Olivier Méhu




SOURCES & CREDITS :

   NOAA       Earth
Advisory